createdAt,value
2017-08-18T00:00:18.466Z,100341.18
2017-08-18T00:02:45.864Z,100345.34
2017-08-18T00:05:13.270Z,100341.69
2017-08-18T00:07:40.666Z,100336.53
2017-08-18T00:10:08.078Z,100347.32
2017-08-18T00:12:35.523Z,100339.61
2017-08-18T00:15:02.899Z,100338.62
2017-08-18T00:17:30.298Z,100333.66
2017-08-18T00:19:57.694Z,100329.73
2017-08-18T00:22:25.149Z,100320.56
2017-08-18T00:24:52.545Z,100310.09
2017-08-18T00:27:19.939Z,100319.95
2017-08-18T00:29:47.344Z,100311.50
2017-08-18T00:32:14.742Z,100305.85
2017-08-18T00:34:42.146Z,100286.72
2017-08-18T00:37:09.537Z,100281.73
2017-08-18T00:39:36.940Z,100287.33
2017-08-18T00:42:04.339Z,100290.98
2017-08-18T00:44:31.745Z,100290.56
2017-08-18T00:46:59.194Z,100286.00
2017-08-18T00:49:26.590Z,100294.25
2017-08-18T00:51:53.994Z,100300.07
2017-08-18T00:54:21.394Z,100289.97
2017-08-18T00:56:48.794Z,100289.14
2017-08-18T00:59:16.302Z,100289.23
2017-08-18T01:01:43.699Z,100283.02
2017-08-18T01:04:11.090Z,100285.55
2017-08-18T01:06:38.495Z,100286.70
2017-08-18T01:09:05.894Z,100289.27
2017-08-18T01:11:33.443Z,100285.32
2017-08-18T01:14:00.839Z,100280.30
2017-08-18T01:16:28.239Z,100272.07
2017-08-18T01:18:55.638Z,100269.76
2017-08-18T01:21:23.037Z,100262.27
2017-08-18T01:23:50.542Z,100260.80
2017-08-18T01:26:17.942Z,100265.44
2017-08-18T01:28:45.347Z,100254.41
2017-08-18T01:31:12.746Z,100249.27
2017-08-18T01:33:40.144Z,100255.77
2017-08-18T01:36:08.011Z,100267.63
2017-08-18T01:38:35.411Z,100272.89
2017-08-18T01:41:02.811Z,100279.91
2017-08-18T01:43:30.211Z,100273.67
2017-08-18T01:45:57.611Z,100267.86
2017-08-18T01:48:25.014Z,100259.45
2017-08-18T01:50:52.410Z,100259.59
2017-08-18T01:53:19.807Z,100262.41
2017-08-18T01:55:47.210Z,100271.98
2017-08-18T01:58:14.658Z,100269.80
2017-08-18T02:00:42.082Z,100271.30
2017-08-18T02:03:09.489Z,100272.23
2017-08-18T02:05:37.315Z,100272.52
2017-08-18T02:08:04.739Z,100268.41
2017-08-18T02:10:32.144Z,100270.85
2017-08-18T02:12:59.646Z,100265.60
2017-08-18T02:15:27.042Z,100273.34
2017-08-18T02:17:54.891Z,100276.34
2017-08-18T02:20:22.275Z,100271.48
2017-08-18T02:22:49.679Z,100263.14
2017-08-18T02:25:17.102Z,100264.53
2017-08-18T02:27:44.513Z,100265.62
2017-08-18T02:30:11.898Z,100266.16
2017-08-18T02:32:39.310Z,100273.06
2017-08-18T02:35:06.702Z,100282.39
2017-08-18T02:37:34.098Z,100288.06
2017-08-18T02:40:01.518Z,100290.95
2017-08-18T02:42:28.918Z,100286.61
2017-08-18T02:44:56.317Z,100281.22
2017-08-18T02:47:23.742Z,100299.89
2017-08-18T02:49:51.144Z,100298.81
2017-08-18T02:52:18.535Z,100292.98
2017-08-18T02:54:46.043Z,100302.16
2017-08-18T02:57:13.439Z,100308.81
2017-08-18T02:59:40.846Z,100306.91
2017-08-18T03:02:08.618Z,100279.83
2017-08-18T03:04:36.015Z,100295.50
2017-08-18T03:07:03.416Z,100295.91
2017-08-18T03:09:30.819Z,100265.08
2017-08-18T03:11:58.214Z,100274.52
2017-08-18T03:14:25.626Z,100278.98
2017-08-18T03:16:53.030Z,100268.95
2017-08-18T03:19:20.426Z,100260.70
2017-08-18T03:21:47.823Z,100252.73
2017-08-18T03:24:15.522Z,100249.20
2017-08-18T03:26:42.918Z,100242.70
2017-08-18T03:29:10.315Z,100240.41
2017-08-18T03:31:37.867Z,100245.42
2017-08-18T03:34:05.262Z,100250.14
2017-08-18T03:36:32.654Z,100235.59
2017-08-18T03:39:00.474Z,100237.73
2017-08-18T03:41:27.873Z,100243.92
2017-08-18T03:43:55.273Z,100235.30
2017-08-18T03:46:23.058Z,100238.53
2017-08-18T03:48:50.454Z,100239.33
2017-08-18T03:51:17.853Z,100237.98
2017-08-18T03:53:45.254Z,100251.61
2017-08-18T03:56:12.650Z,100249.80
2017-08-18T03:58:40.043Z,100249.11
2017-08-18T04:01:07.598Z,100242.20
2017-08-18T04:03:34.982Z,100240.67
2017-08-18T04:06:02.381Z,100246.34
2017-08-18T04:08:29.821Z,100258.36
2017-08-18T04:10:57.223Z,100249.25
2017-08-18T04:13:24.617Z,100241.83
2017-08-18T04:15:52.170Z,100254.30
2017-08-18T04:18:19.574Z,100247.46
2017-08-18T04:20:46.966Z,100261.28
2017-08-18T04:23:14.372Z,100256.05
2017-08-18T04:25:41.770Z,100254.86
2017-08-18T04:28:09.157Z,100249.20
2017-08-18T04:30:36.566Z,100245.39
2017-08-18T04:33:03.964Z,100262.30
2017-08-18T04:35:31.354Z,100269.62
2017-08-18T04:37:58.762Z,100260.18
2017-08-18T04:40:26.155Z,100259.03
2017-08-18T04:42:53.551Z,100250.72
2017-08-18T04:45:21.107Z,100251.67
2017-08-18T04:47:48.502Z,100249.45
2017-08-18T04:50:15.905Z,100242.97
2017-08-18T04:52:43.323Z,100235.70
2017-08-18T04:55:10.723Z,100234.19
2017-08-18T04:57:38.123Z,100237.71
2017-08-18T05:00:05.580Z,100246.25
2017-08-18T05:02:32.991Z,100243.20
2017-08-18T05:05:00.382Z,100240.66
2017-08-18T05:07:27.899Z,100238.70
2017-08-18T05:09:55.295Z,100243.58
2017-08-18T05:12:22.694Z,100247.91
2017-08-18T05:14:50.263Z,100255.58
2017-08-18T05:17:17.683Z,100247.46
2017-08-18T05:19:45.074Z,100239.69
2017-08-18T05:22:12.621Z,100241.10
2017-08-18T05:24:40.019Z,100243.87
2017-08-18T05:27:07.424Z,100235.64
2017-08-18T05:29:35.034Z,100226.69
2017-08-18T05:32:02.439Z,100214.77
2017-08-18T05:34:29.854Z,100193.14
2017-08-18T05:36:57.621Z,100188.00
2017-08-18T05:39:25.010Z,100200.94
2017-08-18T05:41:52.402Z,100199.45
2017-08-18T05:44:20.138Z,100192.43
2017-08-18T05:46:47.539Z,100194.55
2017-08-18T05:49:14.955Z,100197.72
2017-08-18T05:51:42.462Z,100221.89
2017-08-18T05:54:09.859Z,100226.38
2017-08-18T05:56:37.255Z,100205.98
2017-08-18T05:59:04.686Z,100212.36
2017-08-18T06:01:32.087Z,100201.70
2017-08-18T06:03:59.492Z,100210.65
2017-08-18T06:06:27.106Z,100204.45
2017-08-18T06:08:54.518Z,100203.36
2017-08-18T06:11:21.919Z,100193.86
2017-08-18T06:13:49.362Z,100195.46
2017-08-18T06:16:16.790Z,100189.31
2017-08-18T06:18:44.191Z,100181.92
2017-08-18T06:21:11.713Z,100190.45
2017-08-18T06:23:39.110Z,100182.24
2017-08-18T06:26:06.510Z,100175.79
2017-08-18T06:28:34.218Z,100181.09
2017-08-18T06:31:01.611Z,100190.41
2017-08-18T06:33:29.014Z,100194.34
2017-08-18T06:35:56.571Z,100200.41
2017-08-18T06:38:23.967Z,100191.80
2017-08-18T06:40:51.377Z,100183.28
2017-08-18T06:43:18.882Z,100178.02
2017-08-18T06:45:46.282Z,100174.11
2017-08-18T06:48:13.678Z,100173.98
2017-08-18T06:50:41.551Z,100183.31
2017-08-18T06:53:08.938Z,100183.61
2017-08-18T06:55:36.322Z,100196.97
2017-08-18T06:58:03.742Z,100205.91
2017-08-18T07:00:31.139Z,100207.41
2017-08-18T07:02:58.542Z,100214.56
2017-08-18T07:05:26.283Z,100212.80
2017-08-18T07:07:53.688Z,100223.87
2017-08-18T07:10:21.078Z,100236.14
2017-08-18T07:12:48.637Z,100240.55
2017-08-18T07:15:16.026Z,100253.06
2017-08-18T07:17:43.640Z,100266.79
2017-08-18T07:20:11.245Z,100274.26
2017-08-18T07:22:38.626Z,100280.40
2017-08-18T07:25:06.027Z,100274.23
2017-08-18T07:27:33.619Z,100272.19
2017-08-18T07:30:01.026Z,100270.73
2017-08-18T07:32:28.434Z,100272.50
2017-08-18T07:34:55.846Z,100273.21
2017-08-18T07:37:23.242Z,100263.38
2017-08-18T07:39:50.638Z,100254.53
2017-08-18T07:42:18.187Z,100261.32
2017-08-18T07:44:45.594Z,100257.34
2017-08-18T07:47:12.986Z,100252.94
2017-08-18T07:49:40.396Z,100258.55
2017-08-18T07:52:07.794Z,100253.70
2017-08-18T07:54:35.190Z,100252.91
2017-08-18T07:57:03.095Z,100255.48
2017-08-18T07:59:30.495Z,100256.56
2017-08-18T08:01:57.886Z,100254.30
2017-08-18T08:04:25.464Z,100251.59
2017-08-18T08:06:52.859Z,100249.59
2017-08-18T08:09:20.258Z,100235.41
2017-08-18T08:11:48.042Z,100245.00
2017-08-18T08:14:15.434Z,100239.22
2017-08-18T08:16:42.833Z,100238.44
2017-08-18T08:19:10.254Z,100229.92
2017-08-18T08:21:37.650Z,100222.64
2017-08-18T08:24:05.046Z,100221.70
2017-08-18T08:26:32.487Z,100223.63
2017-08-18T08:28:59.886Z,100228.22
2017-08-18T08:31:27.282Z,100223.09
2017-08-18T08:33:54.718Z,100221.20
2017-08-18T08:36:22.115Z,100217.68
2017-08-18T08:38:49.515Z,100212.81
2017-08-18T08:41:17.065Z,100211.86
2017-08-18T08:43:44.463Z,100212.86
2017-08-18T08:46:11.858Z,100202.98
2017-08-18T08:48:39.287Z,100196.08
2017-08-18T08:51:06.681Z,100188.36
2017-08-18T08:53:34.081Z,100182.69
2017-08-18T08:56:01.634Z,100186.05
2017-08-18T08:58:29.042Z,100183.04
2017-08-18T09:00:56.435Z,100186.11
2017-08-18T09:03:23.855Z,100179.36
2017-08-18T09:05:51.267Z,100168.20
2017-08-18T09:08:18.646Z,100162.75
2017-08-18T09:10:46.196Z,100149.96
2017-08-18T09:13:13.595Z,100149.17
2017-08-18T09:15:40.999Z,100143.70
2017-08-18T09:18:08.767Z,100154.16
2017-08-18T09:20:36.162Z,100161.10
2017-08-18T09:23:03.559Z,100172.98
2017-08-18T09:25:31.146Z,100180.96
2017-08-18T09:27:58.551Z,100184.19
2017-08-18T09:30:25.951Z,100185.09
2017-08-18T09:32:53.718Z,100201.83
2017-08-18T09:35:21.110Z,100209.34
2017-08-18T09:37:48.511Z,100209.96
2017-08-18T09:40:16.023Z,100204.77
2017-08-18T09:42:43.419Z,100214.14
2017-08-18T09:45:10.810Z,100207.74
2017-08-18T09:47:38.426Z,100206.53
2017-08-18T09:50:17.682Z,100205.18
2017-08-18T09:55:57.192Z,100185.53
2017-08-18T09:58:36.410Z,100179.28
2017-08-18T10:01:03.815Z,100179.31
2017-08-18T10:03:31.215Z,100177.62
2017-08-18T10:05:58.633Z,100174.91
2017-08-18T10:08:26.040Z,100178.52
2017-08-18T10:10:53.434Z,100173.36
2017-08-18T10:13:20.854Z,100177.38
2017-08-18T10:15:48.251Z,100168.55
2017-08-18T10:18:15.651Z,100166.52
2017-08-18T10:20:43.410Z,100163.81
2017-08-18T10:23:10.815Z,100155.36
2017-08-18T10:25:38.202Z,100151.76
2017-08-18T10:28:05.707Z,100142.20
2017-08-18T10:30:33.105Z,100135.70
2017-08-18T10:33:00.499Z,100128.63
2017-08-18T10:35:28.186Z,100133.48
2017-08-18T10:37:55.567Z,100126.88
2017-08-18T10:40:22.969Z,100127.09
2017-08-18T10:42:50.511Z,100119.59
2017-08-18T10:45:17.895Z,100122.90
2017-08-18T10:47:45.293Z,100124.19
2017-08-18T10:50:13.106Z,100120.47
2017-08-18T10:52:40.504Z,100115.37
2017-08-18T10:55:07.899Z,100109.76
2017-08-18T10:57:35.483Z,100112.30
2017-08-18T11:00:02.886Z,100120.50
2017-08-18T11:02:30.277Z,100115.27
2017-08-18T11:04:57.730Z,100110.34
2017-08-18T11:07:25.121Z,100111.66
2017-08-18T11:09:52.514Z,100110.91
2017-08-18T11:12:19.950Z,100104.55
2017-08-18T11:14:47.343Z,100106.27
2017-08-18T11:17:14.734Z,100099.70
2017-08-18T11:19:42.274Z,100095.02
2017-08-18T11:22:09.661Z,100095.91
2017-08-18T11:24:37.058Z,100095.98
2017-08-18T11:27:04.973Z,100099.91
2017-08-18T11:29:32.364Z,100097.04
2017-08-18T11:31:59.754Z,100089.32
2017-08-18T11:34:27.339Z,100092.10
2017-08-18T11:36:54.730Z,100097.19
2017-08-18T11:39:22.123Z,100098.76
2017-08-18T11:41:49.558Z,100090.09
2017-08-18T11:44:16.946Z,100083.79
2017-08-18T11:46:44.355Z,100081.69
2017-08-18T11:49:11.770Z,100086.00
2017-08-18T11:51:39.160Z,100083.36
2017-08-18T11:54:06.547Z,100089.56
2017-08-18T11:56:34.050Z,100084.38
2017-08-18T11:59:01.435Z,100083.69
2017-08-18T12:01:28.820Z,100085.20
2017-08-18T12:03:56.379Z,100088.28
2017-08-18T12:06:23.766Z,100084.29
2017-08-18T12:08:51.157Z,100082.56
2017-08-18T12:11:18.993Z,100080.97
2017-08-18T12:13:46.382Z,100069.17
2017-08-18T12:16:13.771Z,100065.17
2017-08-18T12:18:41.178Z,100060.13
2017-08-18T12:21:08.568Z,100056.92
2017-08-18T12:23:35.975Z,100053.72
2017-08-18T12:26:03.378Z,100052.69
2017-08-18T12:28:30.763Z,100050.62
2017-08-18T12:30:58.154Z,100040.64
2017-08-18T12:33:25.654Z,100036.25
2017-08-18T12:35:53.054Z,100025.41
2017-08-18T12:38:20.446Z,100050.72
2017-08-18T12:40:47.988Z,100058.16
2017-08-18T12:43:15.378Z,100048.55
2017-08-18T12:45:42.766Z,100073.71
2017-08-18T12:48:10.187Z,100085.19
2017-08-18T12:50:37.603Z,100080.45
2017-08-18T12:53:05.006Z,100081.59
2017-08-18T12:55:32.518Z,100076.97
2017-08-18T12:57:59.931Z,100066.97
2017-08-18T13:00:27.339Z,100064.14
2017-08-18T13:02:54.986Z,100059.47
2017-08-18T13:05:22.399Z,100050.58
2017-08-18T13:07:49.798Z,100045.22
2017-08-18T13:10:17.354Z,100040.42
2017-08-18T13:12:44.750Z,100056.61
2017-08-18T13:15:12.154Z,100057.86
2017-08-18T13:17:39.709Z,100067.56
2017-08-18T13:20:07.106Z,100066.98
2017-08-18T13:22:34.502Z,100063.61
2017-08-18T13:25:01.906Z,100063.66
2017-08-18T13:27:29.299Z,100047.95
2017-08-18T13:29:56.687Z,100053.44
2017-08-18T13:32:24.192Z,100059.62
2017-08-18T13:34:51.584Z,100066.23
2017-08-18T13:37:18.974Z,100069.66
2017-08-18T13:39:46.519Z,100073.61
2017-08-18T13:42:13.913Z,100075.97
2017-08-18T13:44:41.307Z,100065.08
2017-08-18T13:47:08.724Z,100064.42
2017-08-18T13:49:36.115Z,100057.24
2017-08-18T13:52:03.513Z,100046.86
2017-08-18T13:54:30.917Z,100047.95
2017-08-18T13:56:58.319Z,100045.41
2017-08-18T13:59:25.714Z,100046.50
2017-08-18T14:01:53.123Z,100040.16
2017-08-18T14:04:20.523Z,100046.87
2017-08-18T14:06:47.918Z,100045.94
2017-08-18T14:09:15.731Z,100045.73
2017-08-18T14:11:43.126Z,100046.83
2017-08-18T14:14:10.530Z,100050.20
2017-08-18T14:16:38.307Z,100041.75
2017-08-18T14:19:05.698Z,100046.91
2017-08-18T14:21:33.391Z,100047.31
2017-08-18T14:24:00.898Z,100053.19
2017-08-18T14:29:31.078Z,100061.34
2017-08-18T14:31:58.488Z,100066.50
2017-08-18T14:34:25.871Z,100065.86
2017-08-18T14:36:53.639Z,100075.43
2017-08-18T14:39:21.035Z,100080.72
2017-08-18T14:41:48.426Z,100085.19
2017-08-18T14:44:15.975Z,100085.45
2017-08-18T14:46:43.375Z,100087.47
2017-08-18T14:49:10.762Z,100079.52
2017-08-18T14:51:38.170Z,100079.11
2017-08-18T14:54:05.572Z,100091.27
2017-08-18T14:56:32.984Z,100092.23
2017-08-18T14:59:00.496Z,100087.08
2017-08-18T15:01:27.874Z,100091.12
2017-08-18T15:03:55.278Z,100089.91
2017-08-18T15:06:22.699Z,100094.63
2017-08-18T15:08:50.087Z,100094.52
2017-08-18T15:11:17.470Z,100085.16
2017-08-18T15:13:44.978Z,100089.66
2017-08-18T15:16:12.378Z,100088.15
2017-08-18T15:18:39.784Z,100081.52
2017-08-18T15:21:07.218Z,100085.73
2017-08-18T15:23:34.602Z,100087.61
2017-08-18T15:26:01.994Z,100073.56
2017-08-18T15:28:29.498Z,100072.06
2017-08-18T15:30:56.894Z,100068.41
2017-08-18T15:33:24.294Z,100071.67
2017-08-18T15:35:51.685Z,100080.59
2017-08-18T15:38:19.083Z,100075.19
2017-08-18T15:40:46.494Z,100069.48
2017-08-18T15:43:14.130Z,100076.39
2017-08-18T15:45:41.531Z,100077.19
2017-08-18T15:48:08.926Z,100070.59
2017-08-18T15:50:36.515Z,100070.84
2017-08-18T15:53:03.924Z,100070.44
2017-08-18T15:55:31.322Z,100067.05
2017-08-18T15:57:58.735Z,100072.71
2017-08-18T16:00:26.126Z,100069.45
2017-08-18T16:02:53.515Z,100068.62
2017-08-18T16:05:20.912Z,100062.93
2017-08-18T16:07:48.309Z,100060.67
2017-08-18T16:10:15.694Z,100065.95
2017-08-18T16:12:43.406Z,100066.24
2017-08-18T16:15:10.800Z,100072.98
2017-08-18T16:17:38.187Z,100076.70
2017-08-18T16:20:05.590Z,100075.55
2017-08-18T16:22:32.978Z,100074.48
2017-08-18T16:25:00.366Z,100077.75
2017-08-18T16:27:27.803Z,100075.58
2017-08-18T16:29:55.197Z,100085.03
2017-08-18T16:32:22.580Z,100090.84
2017-08-18T16:34:49.986Z,100091.80
2017-08-18T16:37:17.378Z,100082.60
2017-08-18T16:39:44.768Z,100078.40
2017-08-18T16:42:12.549Z,100089.20
2017-08-18T16:44:39.914Z,100089.88
2017-08-18T16:47:07.307Z,100077.05
2017-08-18T16:49:34.702Z,100083.69
2017-08-18T16:52:02.090Z,100082.33
2017-08-18T16:54:29.484Z,100087.47
2017-08-18T16:56:56.921Z,100088.80
2017-08-18T16:59:24.303Z,100085.95
2017-08-18T17:01:51.691Z,100084.08
2017-08-18T17:04:19.195Z,100085.28
2017-08-18T17:06:46.580Z,100090.28
2017-08-18T17:09:13.985Z,100086.62
2017-08-18T17:11:41.499Z,100093.92
2017-08-18T17:14:08.890Z,100090.67
2017-08-18T17:16:36.288Z,100091.24
2017-08-18T17:19:04.142Z,100089.05
2017-08-18T17:21:31.539Z,100079.86
2017-08-18T17:23:58.933Z,100076.51
2017-08-18T17:26:26.518Z,100079.74
2017-08-18T17:28:53.912Z,100088.00
2017-08-18T17:31:21.291Z,100093.53
2017-08-18T17:33:48.831Z,100094.76
2017-08-18T17:36:16.218Z,100103.82
2017-08-18T17:38:43.602Z,100097.19
2017-08-18T17:41:11.018Z,100099.48
2017-08-18T17:43:38.410Z,100097.87
2017-08-18T17:46:05.798Z,100105.17
2017-08-18T17:48:33.343Z,100093.00
2017-08-18T17:51:00.732Z,100086.27
2017-08-18T17:53:28.119Z,100091.52
2017-08-18T17:55:55.513Z,100092.75
2017-08-18T17:58:22.904Z,100105.58
2017-08-18T18:00:50.295Z,100104.22
2017-08-18T18:03:17.967Z,100106.38
2017-08-18T18:05:45.360Z,100112.85
2017-08-18T18:08:12.748Z,100117.57
2017-08-18T18:10:40.162Z,100113.38
2017-08-18T18:13:07.562Z,100113.36
2017-08-18T18:15:34.954Z,100105.38
2017-08-18T18:18:02.367Z,100109.56
2017-08-18T18:20:29.771Z,100099.19
2017-08-18T18:22:57.160Z,100106.48
2017-08-18T18:25:24.700Z,100100.25
2017-08-18T18:27:52.100Z,100103.73
2017-08-18T18:30:19.492Z,100108.20
2017-08-18T18:32:46.894Z,100110.21
2017-08-18T18:35:14.286Z,100121.00
2017-08-18T18:37:41.682Z,100128.03
2017-08-18T18:40:09.120Z,100126.69
2017-08-18T18:42:36.510Z,100125.12
2017-08-18T18:45:03.907Z,100117.66
2017-08-18T18:47:31.343Z,100129.27
2017-08-18T18:49:58.726Z,100132.34
2017-08-18T18:52:26.124Z,100134.78
2017-08-18T18:54:53.662Z,100138.82
2017-08-18T18:57:21.057Z,100137.45
2017-08-18T18:59:48.446Z,100144.47
2017-08-18T19:02:15.988Z,100146.91
2017-08-18T19:04:43.376Z,100147.44
2017-08-18T19:07:10.771Z,100146.23
2017-08-18T19:09:38.315Z,100131.38
2017-08-18T19:12:05.702Z,100132.05
2017-08-18T19:14:33.105Z,100147.97
2017-08-18T19:17:00.649Z,100152.16
2017-08-18T19:19:28.039Z,100148.48
2017-08-18T19:21:55.432Z,100160.12
2017-08-18T19:24:23.242Z,100170.62
2017-08-18T19:26:50.626Z,100174.65
2017-08-18T19:29:18.015Z,100179.52
2017-08-18T19:31:45.614Z,100187.07
2017-08-18T19:34:13.014Z,100197.88
2017-08-18T19:36:40.403Z,100197.22
2017-08-18T19:39:08.139Z,100202.73
2017-08-18T19:41:35.536Z,100205.28
2017-08-18T19:44:02.926Z,100218.17
2017-08-18T19:46:30.336Z,100222.16
2017-08-18T19:48:57.739Z,100220.50
2017-08-18T19:51:25.126Z,100218.56
2017-08-18T19:53:52.531Z,100230.67
2017-08-18T19:56:19.923Z,100247.34
2017-08-18T19:58:47.321Z,100255.17
2017-08-18T20:01:14.871Z,100242.25
2017-08-18T20:03:42.272Z,100245.57
2017-08-18T20:06:09.654Z,100248.37
2017-08-18T20:08:37.066Z,100258.36
2017-08-18T20:11:04.459Z,100253.61
2017-08-18T20:13:31.854Z,100248.97
2017-08-18T20:15:59.606Z,100247.77
2017-08-18T20:18:26.990Z,100253.84
2017-08-18T20:20:54.378Z,100244.89
2017-08-18T20:23:22.023Z,100240.95
2017-08-18T20:25:49.415Z,100248.27
2017-08-18T20:28:16.808Z,100247.11
2017-08-18T20:30:44.206Z,100248.55
2017-08-18T20:33:11.598Z,100256.03
2017-08-18T20:35:39.022Z,100249.02
2017-08-18T20:38:06.571Z,100250.28
2017-08-18T20:40:33.956Z,100238.94
2017-08-18T20:43:01.391Z,100243.03
2017-08-18T20:45:28.920Z,100241.14
2017-08-18T20:47:56.306Z,100249.95
2017-08-18T20:50:23.690Z,100248.65
2017-08-18T20:52:51.103Z,100257.70
2017-08-18T20:55:18.495Z,100258.64
2017-08-18T20:57:45.879Z,100267.83
2017-08-18T21:00:13.406Z,100266.43
2017-08-18T21:02:40.791Z,100262.85
2017-08-18T21:05:08.186Z,100262.44
2017-08-18T21:07:35.691Z,100268.33
2017-08-18T21:10:03.083Z,100267.48
2017-08-18T21:12:30.482Z,100273.02
2017-08-18T21:14:57.918Z,100277.47
2017-08-18T21:17:25.312Z,100280.13
2017-08-18T21:19:52.699Z,100274.07
2017-08-18T21:22:20.102Z,100279.12
2017-08-18T21:24:47.490Z,100282.08
2017-08-18T21:27:14.874Z,100277.41
2017-08-18T21:29:42.418Z,100280.21
2017-08-18T21:32:09.814Z,100287.75
2017-08-18T21:34:37.214Z,100287.34
2017-08-18T21:37:04.611Z,100293.77
2017-08-18T21:39:31.998Z,100284.17
2017-08-18T21:41:59.387Z,100289.86
2017-08-18T21:44:26.890Z,100292.78
2017-08-18T21:46:54.291Z,100295.75
2017-08-18T21:49:21.687Z,100307.15
2017-08-18T21:51:49.463Z,100302.13
2017-08-18T21:54:16.856Z,100299.52
2017-08-18T21:56:44.251Z,100303.88
2017-08-18T21:59:11.691Z,100312.38
2017-08-18T22:01:39.098Z,100306.56
2017-08-18T22:04:06.497Z,100313.09
2017-08-18T22:06:34.037Z,100311.16
2017-08-18T22:09:01.445Z,100309.27
2017-08-18T22:11:28.827Z,100311.67
2017-08-18T22:13:56.270Z,100316.60
2017-08-18T22:16:23.662Z,100310.59
2017-08-18T22:18:51.058Z,100317.51
2017-08-18T22:21:18.471Z,100317.89
2017-08-18T22:23:45.871Z,100312.63
2017-08-18T22:26:13.270Z,100312.05
2017-08-18T22:28:40.836Z,100314.45
2017-08-18T22:31:08.234Z,100315.16
2017-08-18T22:33:35.635Z,100314.52
2017-08-18T22:36:03.059Z,100315.93
2017-08-18T22:38:30.463Z,100318.91
2017-08-18T22:40:57.862Z,100318.39
2017-08-18T22:43:25.274Z,100319.55
2017-08-18T22:45:52.676Z,100320.79
2017-08-18T22:48:20.075Z,100320.50
2017-08-18T22:50:47.487Z,100323.12
2017-08-18T22:53:14.887Z,100320.92
2017-08-18T22:55:42.290Z,100319.77
2017-08-18T22:58:09.697Z,100318.67
2017-08-18T23:00:37.091Z,100321.55
2017-08-18T23:03:04.488Z,100318.64
2017-08-18T23:05:32.163Z,100316.02
2017-08-18T23:07:59.564Z,100314.58
2017-08-18T23:10:26.955Z,100324.89
2017-08-18T23:12:54.508Z,100318.89
2017-08-18T23:15:21.903Z,100324.83
2017-08-18T23:17:49.299Z,100324.41
2017-08-18T23:20:16.906Z,100324.66
2017-08-18T23:22:44.308Z,100334.22
2017-08-18T23:25:11.696Z,100339.93
2017-08-18T23:27:39.138Z,100339.06
2017-08-18T23:30:06.530Z,100341.33
2017-08-18T23:32:33.927Z,100340.11
2017-08-18T23:35:01.434Z,100342.86
2017-08-18T23:37:28.826Z,100344.19
2017-08-18T23:39:56.227Z,100341.41
2017-08-18T23:42:23.760Z,100347.62
2017-08-18T23:44:51.159Z,100352.00
2017-08-18T23:47:18.554Z,100360.05
2017-08-18T23:49:46.107Z,100365.53
2017-08-18T23:52:13.507Z,100372.48
2017-08-18T23:54:40.902Z,100366.42
2017-08-18T23:57:08.462Z,100370.59
2017-08-18T23:59:35.868Z,100382.56
